sensor_id;sensor_type;location;lat;lon;timestamp;pressure;altitude;pressure_sealevel;temperature;humidity
60832;BME280;46665;51.558;-0.448;2023-04-10T00:01:56;100999.13;;;10.77;80.90
60832;BME280;46665;51.558;-0.448;2023-04-10T00:04:40;101000.72;;;10.83;81.01
60832;BME280;46665;51.558;-0.448;2023-04-10T00:07:24;100989.84;;;10.83;81.44
60832;BME280;46665;51.558;-0.448;2023-04-10T00:10:09;100979.81;;;10.84;81.34
60832;BME280;46665;51.558;-0.448;2023-04-10T00:12:54;100977.34;;;10.82;81.84
60832;BME280;46665;51.558;-0.448;2023-04-10T00:15:39;100975.44;;;10.78;81.93
60832;BME280;46665;51.558;-0.448;2023-04-10T00:18:23;100972.16;;;10.81;82.52
60832;BME280;46665;51.558;-0.448;2023-04-10T00:21:07;100974.88;;;10.81;82.48
60832;BME280;46665;51.558;-0.448;2023-04-10T00:23:51;100983.34;;;10.84;83.23
60832;BME280;46665;51.558;-0.448;2023-04-10T00:26:35;100980.59;;;10.84;82.95
60832;BME280;46665;51.558;-0.448;2023-04-10T00:29:19;100979.81;;;10.84;83.45
60832;BME280;46665;51.558;-0.448;2023-04-10T00:32:03;100972.16;;;10.76;83.26
60832;BME280;46665;51.558;-0.448;2023-04-10T00:34:47;100970.53;;;10.75;83.89
60832;BME280;46665;51.558;-0.448;2023-04-10T00:37:31;100963.19;;;10.75;83.93
60832;BME280;46665;51.558;-0.448;2023-04-10T00:40:15;100957.75;;;10.75;84.36
60832;BME280;46665;51.558;-0.448;2023-04-10T00:42:59;100961.00;;;10.77;84.59
60832;BME280;46665;51.558;-0.448;2023-04-10T00:45:44;100959.09;;;10.78;84.84
60832;BME280;46665;51.558;-0.448;2023-04-10T00:48:28;100942.22;;;10.71;85.62
60832;BME280;46665;51.558;-0.448;2023-04-10T00:51:12;100951.75;;;10.73;86.36
60832;BME280;46665;51.558;-0.448;2023-04-10T00:53:56;100946.03;;;10.75;87.57
60832;BME280;46665;51.558;-0.448;2023-04-10T00:56:40;100943.88;;;10.72;89.18
60832;BME280;46665;51.558;-0.448;2023-04-10T00:59:24;100940.63;;;10.70;91.70
60832;BME280;46665;51.558;-0.448;2023-04-10T01:02:08;100939.25;;;10.62;95.54
60832;BME280;46665;51.558;-0.448;2023-04-10T01:04:55;100926.22;;;10.54;99.45
60832;BME280;46665;51.558;-0.448;2023-04-10T01:08:01;100918.06;;;10.44;100.00
60832;BME280;46665;51.558;-0.448;2023-04-10T01:11:00;100933.03;;;10.36;100.00
60832;BME280;46665;51.558;-0.448;2023-04-10T01:14:04;100912.34;;;10.35;100.00
60832;BME280;46665;51.558;-0.448;2023-04-10T01:16:52;100910.16;;;10.27;100.00
60832;BME280;46665;51.558;-0.448;2023-04-10T01:26:09;100899.81;;;10.18;100.00
60832;BME280;46665;51.558;-0.448;2023-04-10T01:29:08;100879.97;;;10.23;100.00
60832;BME280;46665;51.558;-0.448;2023-04-10T01:31:57;100888.13;;;10.23;100.00
60832;BME280;46665;51.558;-0.448;2023-04-10T01:34:50;100899.53;;;10.25;100.00
60832;BME280;46665;51.558;-0.448;2023-04-10T01:37:37;100893.28;;;10.25;100.00
60832;BME280;46665;51.558;-0.448;2023-04-10T01:40:25;100890.59;;;10.30;100.00
60832;BME280;46665;51.558;-0.448;2023-04-10T01:43:10;100894.41;;;10.29;100.00
60832;BME280;46665;51.558;-0.448;2023-04-10T01:45:56;100894.41;;;10.29;100.00
60832;BME280;46665;51.558;-0.448;2023-04-10T01:48:41;100887.84;;;10.25;100.00
60832;BME280;46665;51.558;-0.448;2023-04-10T01:51:29;100875.88;;;10.20;100.00
60832;BME280;46665;51.558;-0.448;2023-04-10T01:54:13;100876.72;;;10.16;100.00
60832;BME280;46665;51.558;-0.448;2023-04-10T01:56:59;100866.38;;;10.08;100.00
60832;BME280;46665;51.558;-0.448;2023-04-10T01:59:45;100868.25;;;10.02;100.00
60832;BME280;46665;51.558;-0.448;2023-04-10T02:02:33;100859.84;;;9.93;100.00
60832;BME280;46665;51.558;-0.448;2023-04-10T02:05:17;100862.00;;;9.86;100.00
60832;BME280;46665;51.558;-0.448;2023-04-10T02:08:17;100864.16;;;9.79;100.00
60832;BME280;46665;51.558;-0.448;2023-04-10T02:11:15;100865.53;;;9.76;100.00
60832;BME280;46665;51.558;-0.448;2023-04-10T02:14:03;100855.75;;;9.70;100.00
60832;BME280;46665;51.558;-0.448;2023-04-10T02:16:51;100860.91;;;9.67;100.00
60832;BME280;46665;51.558;-0.448;2023-04-10T02:19:37;100851.13;;;9.61;100.00
60832;BME280;46665;51.558;-0.448;2023-04-10T02:22:23;100842.16;;;9.60;100.00
60832;BME280;46665;51.558;-0.448;2023-04-10T02:25:08;100856.00;;;9.59;100.00
60832;BME280;46665;51.558;-0.448;2023-04-10T02:27:53;100850.31;;;9.55;100.00
60832;BME280;46665;51.558;-0.448;2023-04-10T02:30:37;100844.56;;;9.51;100.00
60832;BME280;46665;51.558;-0.448;2023-04-10T02:33:21;100844.00;;;9.44;100.00
60832;BME280;46665;51.558;-0.448;2023-04-10T02:36:06;100844.28;;;9.38;100.00
60832;BME280;46665;51.558;-0.448;2023-04-10T02:38:50;100835.81;;;9.29;100.00
60832;BME280;46665;51.558;-0.448;2023-04-10T02:41:34;100829.03;;;9.26;100.00
60832;BME280;46665;51.558;-0.448;2023-04-10T02:44:18;100812.22;;;9.24;100.00
60832;BME280;46665;51.558;-0.448;2023-04-10T02:47:02;100808.38;;;9.20;100.00
60832;BME280;46665;51.558;-0.448;2023-04-10T02:49:46;100807.03;;;9.23;100.00
60832;BME280;46665;51.558;-0.448;2023-04-10T02:52:30;100800.00;;;9.22;100.00
60832;BME280;46665;51.558;-0.448;2023-04-10T02:55:14;100791.28;;;9.20;100.00
60832;BME280;46665;51.558;-0.448;2023-04-10T02:57:58;100797.53;;;9.25;100.00
60832;BME280;46665;51.558;-0.448;2023-04-10T03:00:47;100799.16;;;9.26;100.00
60832;BME280;46665;51.558;-0.448;2023-04-10T03:03:31;100799.72;;;9.28;100.00
60832;BME280;46665;51.558;-0.448;2023-04-10T03:06:15;100802.44;;;9.28;100.00
60832;BME280;46665;51.558;-0.448;2023-04-10T03:08:59;100793.75;;;9.31;100.00
60832;BME280;46665;51.558;-0.448;2023-04-10T03:11:43;100797.28;;;9.32;100.00
60832;BME280;46665;51.558;-0.448;2023-04-10T03:14:27;100790.50;;;9.35;100.00
60832;BME280;46665;51.558;-0.448;2023-04-10T03:17:11;100794.28;;;9.28;100.00
60832;BME280;46665;51.558;-0.448;2023-04-10T03:19:56;100787.50;;;9.26;100.00
60832;BME280;46665;51.558;-0.448;2023-04-10T03:22:40;100779.06;;;9.22;100.00
60832;BME280;46665;51.558;-0.448;2023-04-10T03:25:24;100781.25;;;9.20;100.00
60832;BME280;46665;51.558;-0.448;2023-04-10T03:28:08;100769.28;;;9.16;100.00
60832;BME280;46665;51.558;-0.448;2023-04-10T03:30:52;100763.03;;;9.16;100.00
60832;BME280;46665;51.558;-0.448;2023-04-10T03:33:36;100767.91;;;9.14;100.00
60832;BME280;46665;51.558;-0.448;2023-04-10T03:36:20;100760.59;;;9.14;100.00
60832;BME280;46665;51.558;-0.448;2023-04-10T03:39:04;100751.63;;;9.14;100.00
60832;BME280;46665;51.558;-0.448;2023-04-10T03:41:48;100760.06;;;9.12;100.00
60832;BME280;46665;51.558;-0.448;2023-04-10T03:44:32;100760.31;;;9.10;100.00
60832;BME280;46665;51.558;-0.448;2023-04-10T03:47:16;100748.91;;;9.08;100.00
60832;BME280;46665;51.558;-0.448;2023-04-10T03:50:00;100742.41;;;9.09;100.00
60832;BME280;46665;51.558;-0.448;2023-04-10T03:52:44;100731.00;;;9.07;100.00
60832;BME280;46665;51.558;-0.448;2023-04-10T03:55:28;100723.13;;;9.11;100.00
60832;BME280;46665;51.558;-0.448;2023-04-10T03:58:12;100723.97;;;9.11;100.00
60832;BME280;46665;51.558;-0.448;2023-04-10T04:00:56;100724.47;;;9.08;100.00
60832;BME280;46665;51.558;-0.448;2023-04-10T04:03:40;100724.75;;;9.07;100.00
60832;BME280;46665;51.558;-0.448;2023-04-10T04:06:24;100716.59;;;9.07;100.00
60832;BME280;46665;51.558;-0.448;2023-04-10T04:09:08;100722.84;;;9.07;100.00
60832;BME280;46665;51.558;-0.448;2023-04-10T04:11:51;100716.31;;;9.08;100.00
60832;BME280;46665;51.558;-0.448;2023-04-10T04:14:35;100710.38;;;9.11;100.00
60832;BME280;46665;51.558;-0.448;2023-04-10T04:17:20;100701.41;;;9.11;100.00
60832;BME280;46665;51.558;-0.448;2023-04-10T04:20:05;100699.22;;;9.13;100.00
60832;BME280;46665;51.558;-0.448;2023-04-10T04:22:49;100693.25;;;9.06;100.00
60832;BME280;46665;51.558;-0.448;2023-04-10T04:25:33;100691.09;;;9.08;100.00
60832;BME280;46665;51.558;-0.448;2023-04-10T04:28:17;100694.91;;;9.12;100.00
60832;BME280;46665;51.558;-0.448;2023-04-10T04:31:01;100693.81;;;9.13;100.00
60832;BME280;46665;51.558;-0.448;2023-04-10T04:33:46;100681.88;;;9.09;100.00
60832;BME280;46665;51.558;-0.448;2023-04-10T04:36:30;100669.66;;;9.11;100.00
60832;BME280;46665;51.558;-0.448;2023-04-10T04:39:14;100671.53;;;9.11;100.00
60832;BME280;46665;51.558;-0.448;2023-04-10T04:41:58;100674.25;;;9.11;100.00
60832;BME280;46665;51.558;-0.448;2023-04-10T04:44:44;100669.09;;;9.09;100.00
60832;BME280;46665;51.558;-0.448;2023-04-10T04:47:28;100669.38;;;9.08;100.00
60832;BME280;46665;51.558;-0.448;2023-04-10T04:50:12;100657.44;;;9.09;100.00
60832;BME280;46665;51.558;-0.448;2023-04-10T04:52:56;100668.00;;;9.10;100.00
60832;BME280;46665;51.558;-0.448;2023-04-10T04:55:40;100660.16;;;9.09;100.00
60832;BME280;46665;51.558;-0.448;2023-04-10T04:58:24;100656.34;;;9.05;100.00
60832;BME280;46665;51.558;-0.448;2023-04-10T05:01:08;100651.47;;;9.02;100.00
60832;BME280;46665;51.558;-0.448;2023-04-10T05:03:52;100655.53;;;9.04;100.00
60832;BME280;46665;51.558;-0.448;2023-04-10T05:06:36;100653.38;;;9.06;100.00
60832;BME280;46665;51.558;-0.448;2023-04-10T05:09:20;100654.97;;;9.02;100.00
60832;BME280;46665;51.558;-0.448;2023-04-10T05:12:04;100641.66;;;9.01;100.00
60832;BME280;46665;51.558;-0.448;2023-04-10T05:14:48;100635.16;;;8.97;100.00
60832;BME280;46665;51.558;-0.448;2023-04-10T05:17:32;100616.97;;;8.92;100.00
60832;BME280;46665;51.558;-0.448;2023-04-10T05:20:16;100616.97;;;8.92;100.00
60832;BME280;46665;51.558;-0.448;2023-04-10T05:23:01;100615.88;;;8.88;100.00
60832;BME280;46665;51.558;-0.448;2023-04-10T05:25:45;100615.88;;;8.88;100.00
60832;BME280;46665;51.558;-0.448;2023-04-10T05:28:29;100610.19;;;8.84;100.00
60832;BME280;46665;51.558;-0.448;2023-04-10T05:31:12;100609.91;;;8.81;100.00
60832;BME280;46665;51.558;-0.448;2023-04-10T05:33:56;100601.50;;;8.82;100.00
60832;BME280;46665;51.558;-0.448;2023-04-10T05:36:40;100599.06;;;8.81;100.00
60832;BME280;46665;51.558;-0.448;2023-04-10T05:39:24;100600.41;;;8.83;100.00
60832;BME280;46665;51.558;-0.448;2023-04-10T05:42:08;100594.47;;;8.86;100.00
60832;BME280;46665;51.558;-0.448;2023-04-10T05:44:52;100587.38;;;8.90;100.00
60832;BME280;46665;51.558;-0.448;2023-04-10T05:47:36;100584.69;;;8.90;100.00
60832;BME280;46665;51.558;-0.448;2023-04-10T05:50:20;100578.69;;;8.88;100.00
60832;BME280;46665;51.558;-0.448;2023-04-10T05:53:04;100573.81;;;8.85;100.00
60832;BME280;46665;51.558;-0.448;2023-04-10T05:55:49;100579.53;;;8.89;100.00
60832;BME280;46665;51.558;-0.448;2023-04-10T05:58:34;100571.66;;;8.87;100.00
60832;BME280;46665;51.558;-0.448;2023-04-10T06:01:18;100567.84;;;8.88;100.00
60832;BME280;46665;51.558;-0.448;2023-04-10T06:04:02;100557.84;;;8.89;100.00
60832;BME280;46665;51.558;-0.448;2023-04-10T06:06:46;100566.50;;;8.91;100.00
60832;BME280;46665;51.558;-0.448;2023-04-10T06:09:30;100558.91;;;8.93;100.00
60832;BME280;46665;51.558;-0.448;2023-04-10T06:12:14;100551.56;;;8.94;100.00
60832;BME280;46665;51.558;-0.448;2023-04-10T06:14:58;100548.03;;;8.98;100.00
60832;BME280;46665;51.558;-0.448;2023-04-10T06:17:42;100539.63;;;9.00;100.00
60832;BME280;46665;51.558;-0.448;2023-04-10T06:20:26;100535.81;;;9.01;100.00
60832;BME280;46665;51.558;-0.448;2023-04-10T06:23:12;100526.31;;;9.03;100.00
60832;BME280;46665;51.558;-0.448;2023-04-10T06:25:56;100540.72;;;9.09;100.00
60832;BME280;46665;51.558;-0.448;2023-04-10T06:28:40;100527.66;;;9.06;100.00
60832;BME280;46665;51.558;-0.448;2023-04-10T06:31:24;100532.03;;;9.07;100.00
60832;BME280;46665;51.558;-0.448;2023-04-10T06:34:09;100534.75;;;9.12;100.00
60832;BME280;46665;51.558;-0.448;2023-04-10T06:36:52;100538.81;;;9.15;100.00
60832;BME280;46665;51.558;-0.448;2023-04-10T06:39:37;100530.38;;;9.16;100.00
60832;BME280;46665;51.558;-0.448;2023-04-10T06:42:21;100541.50;;;9.20;100.00
60832;BME280;46665;51.558;-0.448;2023-04-10T06:45:06;100524.66;;;9.23;100.00
60832;BME280;46665;51.558;-0.448;2023-04-10T06:47:50;100526.56;;;9.27;100.00
60832;BME280;46665;51.558;-0.448;2023-04-10T06:50:35;100520.31;;;9.32;100.00
60832;BME280;46665;51.558;-0.448;2023-04-10T06:53:19;100512.97;;;9.32;100.00
60832;BME280;46665;51.558;-0.448;2023-04-10T06:56:03;100505.63;;;9.38;100.00
60832;BME280;46665;51.558;-0.448;2023-04-10T06:58:47;100505.34;;;9.40;100.00
60832;BME280;46665;51.558;-0.448;2023-04-10T07:01:31;100491.78;;;9.40;100.00
60832;BME280;46665;51.558;-0.448;2023-04-10T07:04:15;100483.88;;;9.43;100.00
60832;BME280;46665;51.558;-0.448;2023-04-10T07:06:59;100476.25;;;9.45;100.00
60832;BME280;46665;51.558;-0.448;2023-04-10T07:09:43;100486.84;;;9.47;100.00
60832;BME280;46665;51.558;-0.448;2023-04-10T07:12:28;100482.47;;;9.51;100.00
60832;BME280;46665;51.558;-0.448;2023-04-10T07:15:12;100478.97;;;9.45;100.00
60832;BME280;46665;51.558;-0.448;2023-04-10T07:17:56;100467.03;;;9.41;100.00
60832;BME280;46665;51.558;-0.448;2023-04-10T07:20:40;100480.88;;;9.45;100.00
60832;BME280;46665;51.558;-0.448;2023-04-10T07:23:24;100465.13;;;9.42;100.00
60832;BME280;46665;51.558;-0.448;2023-04-10T07:26:07;100456.19;;;9.36;100.00
60832;BME280;46665;51.558;-0.448;2023-04-10T07:28:51;100469.78;;;9.36;100.00
60832;BME280;46665;51.558;-0.448;2023-04-10T07:31:35;100462.44;;;9.31;100.00
60832;BME280;46665;51.558;-0.448;2023-04-10T07:34:19;100449.44;;;9.28;100.00
60832;BME280;46665;51.558;-0.448;2023-04-10T07:37:03;100447.81;;;9.27;100.00
60832;BME280;46665;51.558;-0.448;2023-04-10T07:39:47;100447.84;;;9.22;100.00
60832;BME280;46665;51.558;-0.448;2023-04-10T07:42:31;100442.41;;;9.22;100.00
60832;BME280;46665;51.558;-0.448;2023-04-10T07:45:15;100434.00;;;9.14;100.00
60832;BME280;46665;51.558;-0.448;2023-04-10T07:47:59;100442.16;;;9.08;100.00
60832;BME280;46665;51.558;-0.448;2023-04-10T07:50:44;100439.19;;;9.10;100.00
60832;BME280;46665;51.558;-0.448;2023-04-10T07:53:29;100427.78;;;9.08;100.00
60832;BME280;46665;51.558;-0.448;2023-04-10T07:56:17;100429.69;;;9.07;100.00
60832;BME280;46665;51.558;-0.448;2023-04-10T07:59:01;100421.56;;;9.07;100.00
60832;BME280;46665;51.558;-0.448;2023-04-10T08:01:45;100419.09;;;9.06;100.00
60832;BME280;46665;51.558;-0.448;2023-04-10T08:04:29;100409.34;;;9.05;100.00
60832;BME280;46665;51.558;-0.448;2023-04-10T08:07:14;100403.91;;;9.05;100.00
60832;BME280;46665;51.558;-0.448;2023-04-10T08:09:58;100395.75;;;9.10;100.00
60832;BME280;46665;51.558;-0.448;2023-04-10T08:12:42;100389.75;;;9.13;100.00
60832;BME280;46665;51.558;-0.448;2023-04-10T08:15:27;100387.59;;;9.15;100.00
60832;BME280;46665;51.558;-0.448;2023-04-10T08:18:11;100387.03;;;9.18;100.00
60832;BME280;46665;51.558;-0.448;2023-04-10T08:20:55;100363.69;;;9.17;100.00
60832;BME280;46665;51.558;-0.448;2023-04-10T08:23:39;100369.88;;;9.28;100.00
60832;BME280;46665;51.558;-0.448;2023-04-10T08:26:24;100372.56;;;9.33;100.00
60832;BME280;46665;51.558;-0.448;2023-04-10T08:29:09;100369.28;;;9.36;100.00
60832;BME280;46665;51.558;-0.448;2023-04-10T08:31:53;100348.91;;;9.39;100.00
60832;BME280;46665;51.558;-0.448;2023-04-10T08:34:38;100351.59;;;9.44;100.00
60832;BME280;46665;51.558;-0.448;2023-04-10T08:37:22;100355.09;;;9.49;100.00
60832;BME280;46665;51.558;-0.448;2023-04-10T08:40:07;100337.41;;;9.52;100.00
60832;BME280;46665;51.558;-0.448;2023-04-10T08:42:51;100329.53;;;9.55;100.00
60832;BME280;46665;51.558;-0.448;2023-04-10T08:45:35;100330.31;;;9.61;100.00
60832;BME280;46665;51.558;-0.448;2023-04-10T08:48:20;100321.88;;;9.63;100.00
60832;BME280;46665;51.558;-0.448;2023-04-10T08:51:08;100324.56;;;9.68;100.00
60832;BME280;46665;51.558;-0.448;2023-04-10T08:53:59;100327.81;;;9.70;100.00
60832;BME280;46665;51.558;-0.448;2023-04-10T08:56:49;100318.84;;;9.69;100.00
60832;BME280;46665;51.558;-0.448;2023-04-10T08:59:34;100319.09;;;9.73;100.00
60832;BME280;46665;51.558;-0.448;2023-04-10T09:02:21;100313.69;;;9.68;100.00
60832;BME280;46665;51.558;-0.448;2023-04-10T09:05:08;100322.09;;;9.71;100.00
60832;BME280;46665;51.558;-0.448;2023-04-10T09:07:53;100314.47;;;9.73;100.00
60832;BME280;46665;51.558;-0.448;2023-04-10T09:10:37;100302.78;;;9.73;100.00
60832;BME280;46665;51.558;-0.448;2023-04-10T09:16:27;100299.28;;;9.72;100.00
60832;BME280;46665;51.558;-0.448;2023-04-10T09:19:11;100298.75;;;9.70;100.00
60832;BME280;46665;51.558;-0.448;2023-04-10T09:21:55;100304.19;;;9.70;100.00
60832;BME280;46665;51.558;-0.448;2023-04-10T09:24:45;100301.47;;;9.70;100.00
60832;BME280;46665;51.558;-0.448;2023-04-10T09:27:36;100297.59;;;9.76;100.00
60832;BME280;46665;51.558;-0.448;2023-04-10T09:30:32;100294.56;;;9.83;100.00
60832;BME280;46665;51.558;-0.448;2023-04-10T09:33:24;100302.41;;;9.85;100.00
60832;BME280;46665;51.558;-0.448;2023-04-10T09:36:13;100297.50;;;9.87;100.00
60832;BME280;46665;51.558;-0.448;2023-04-10T09:38:57;100287.13;;;9.94;100.00
60832;BME280;46665;51.558;-0.448;2023-04-10T09:41:51;100289.25;;;9.97;100.00
60832;BME280;46665;51.558;-0.448;2023-04-10T09:44:37;100301.53;;;9.94;100.00
60832;BME280;46665;51.558;-0.448;2023-04-10T09:47:22;100276.53;;;9.92;100.00
60832;BME280;46665;51.558;-0.448;2023-04-10T09:50:06;100284.13;;;9.95;100.00
60832;BME280;46665;51.558;-0.448;2023-04-10T09:52:56;100278.41;;;9.97;100.00
60832;BME280;46665;51.558;-0.448;2023-04-10T09:55:41;100277.31;;;9.98;100.00
60832;BME280;46665;51.558;-0.448;2023-04-10T09:58:25;100273.53;;;9.94;100.00
60832;BME280;46665;51.558;-0.448;2023-04-10T10:01:11;100269.22;;;9.93;100.00
60832;BME280;46665;51.558;-0.448;2023-04-10T10:03:58;100263.78;;;9.93;100.00
60832;BME280;46665;51.558;-0.448;2023-04-10T10:06:44;100264.81;;;9.97;100.00
60832;BME280;46665;51.558;-0.448;2023-04-10T10:09:29;100257.22;;;9.94;100.00
60832;BME280;46665;51.558;-0.448;2023-04-10T10:12:21;100237.09;;;9.95;100.00
60832;BME280;46665;51.558;-0.448;2023-04-10T10:15:14;100245.78;;;9.97;100.00
60832;BME280;46665;51.558;-0.448;2023-04-10T10:18:09;100252.28;;;10.01;100.00
60832;BME280;46665;51.558;-0.448;2023-04-10T10:20:56;100256.31;;;10.04;100.00
60832;BME280;46665;51.558;-0.448;2023-04-10T10:23:41;100246.25;;;10.04;100.00
60832;BME280;46665;51.558;-0.448;2023-04-10T10:26:29;100238.69;;;10.01;100.00
60832;BME280;46665;51.558;-0.448;2023-04-10T10:29:15;100238.91;;;10.05;100.00
60832;BME280;46665;51.558;-0.448;2023-04-10T10:32:02;100220.19;;;10.03;100.00
60832;BME280;46665;51.558;-0.448;2023-04-10T10:34:51;100222.84;;;10.08;100.00
60832;BME280;46665;51.558;-0.448;2023-04-10T10:37:36;100226.59;;;10.12;100.00
60832;BME280;46665;51.558;-0.448;2023-04-10T10:40:46;100210.28;;;10.12;100.00
60832;BME280;46665;51.558;-0.448;2023-04-10T10:43:54;100198.78;;;10.20;100.00
60832;BME280;46665;51.558;-0.448;2023-04-10T10:46:46;100197.63;;;10.27;100.00
60832;BME280;46665;51.558;-0.448;2023-04-10T10:49:51;100191.28;;;10.36;100.00
60832;BME280;46665;51.558;-0.448;2023-04-10T10:52:47;100189.66;;;10.35;100.00
60832;BME280;46665;51.558;-0.448;2023-04-10T10:55:36;100187.97;;;10.39;100.00
60832;BME280;46665;51.558;-0.448;2023-04-10T10:58:46;100186.88;;;10.40;100.00
60832;BME280;46665;51.558;-0.448;2023-04-10T11:01:30;100180.03;;;10.43;100.00
60832;BME280;46665;51.558;-0.448;2023-04-10T11:11:03;100197.06;;;10.54;100.00
60832;BME280;46665;51.558;-0.448;2023-04-10T11:16:43;100180.75;;;10.54;100.00
60832;BME280;46665;51.558;-0.448;2023-04-10T11:19:27;100191.25;;;10.60;100.00
60832;BME280;46665;51.558;-0.448;2023-04-10T11:22:11;100191.78;;;10.62;100.00
60832;BME280;46665;51.558;-0.448;2023-04-10T11:24:59;100187.91;;;10.69;100.00
60832;BME280;46665;51.558;-0.448;2023-04-10T11:27:46;100205.03;;;10.69;100.00
60832;BME280;46665;51.558;-0.448;2023-04-10T11:30:34;100202.06;;;10.66;100.00
60832;BME280;46665;51.558;-0.448;2023-04-10T11:33:19;100192.81;;;10.67;100.00
60832;BME280;46665;51.558;-0.448;2023-04-10T11:36:03;100181.78;;;10.77;100.00
60832;BME280;46665;51.558;-0.448;2023-04-10T11:39:04;100172.59;;;10.92;100.00
60832;BME280;46665;51.558;-0.448;2023-04-10T11:41:59;100173.16;;;11.07;100.00
60832;BME280;46665;51.558;-0.448;2023-04-10T11:44:44;100164.16;;;11.26;100.00
60832;BME280;46665;51.558;-0.448;2023-04-10T11:47:28;100152.25;;;11.55;100.00
60832;BME280;46665;51.558;-0.448;2023-04-10T11:50:12;100150.81;;;11.90;100.00
60832;BME280;46665;51.558;-0.448;2023-04-10T11:52:57;100145.38;;;12.04;100.00
60832;BME280;46665;51.558;-0.448;2023-04-10T11:55:41;100145.88;;;12.06;100.00
60832;BME280;46665;51.558;-0.448;2023-04-10T11:58:27;100161.72;;;12.18;100.00
60832;BME280;46665;51.558;-0.448;2023-04-10T12:01:11;100152.72;;;12.17;100.00
60832;BME280;46665;51.558;-0.448;2023-04-10T12:03:57;100147.19;;;12.08;100.00
60832;BME280;46665;51.558;-0.448;2023-04-10T12:06:46;100144.25;;;12.05;100.00
60832;BME280;46665;51.558;-0.448;2023-04-10T12:09:31;100144.03;;;11.87;100.00
60832;BME280;46665;51.558;-0.448;2023-04-10T12:12:15;100160.91;;;11.57;100.00
60832;BME280;46665;51.558;-0.448;2023-04-10T12:14:58;100156.59;;;11.23;100.00
60832;BME280;46665;51.558;-0.448;2023-04-10T12:17:44;100170.53;;;11.02;100.00
60832;BME280;46665;51.558;-0.448;2023-04-10T12:20:27;100165.28;;;10.68;100.00
60832;BME280;46665;51.558;-0.448;2023-04-10T12:23:12;100171.13;;;10.37;100.00
60832;BME280;46665;51.558;-0.448;2023-04-10T12:26:28;100178.50;;;10.13;100.00
60832;BME280;46665;51.558;-0.448;2023-04-10T12:29:13;100194.34;;;10.06;100.00
60832;BME280;46665;51.558;-0.448;2023-04-10T12:31:57;100183.72;;;10.04;100.00
60832;BME280;46665;51.558;-0.448;2023-04-10T12:34:41;100171.84;;;9.95;100.00
60832;BME280;46665;51.558;-0.448;2023-04-10T12:37:48;100166.44;;;9.95;100.00
60832;BME280;46665;51.558;-0.448;2023-04-10T12:40:32;100175.56;;;10.04;100.00
60832;BME280;46665;51.558;-0.448;2023-04-10T12:43:33;100176.75;;;9.98;100.00
60832;BME280;46665;51.558;-0.448;2023-04-10T12:46:27;100165.38;;;10.15;100.00
60832;BME280;46665;51.558;-0.448;2023-04-10T12:49:15;100164.91;;;10.37;100.00
60832;BME280;46665;51.558;-0.448;2023-04-10T12:52:00;100165.00;;;10.70;100.00
60832;BME280;46665;51.558;-0.448;2023-04-10T12:54:44;100167.88;;;10.97;100.00
60832;BME280;46665;51.558;-0.448;2023-04-10T12:57:28;100165.38;;;11.20;100.00
60832;BME280;46665;51.558;-0.448;2023-04-10T13:00:15;100170.09;;;11.14;100.00
60832;BME280;46665;51.558;-0.448;2023-04-10T13:03:02;100185.06;;;11.31;100.00
60832;BME280;46665;51.558;-0.448;2023-04-10T13:05:46;100189.19;;;11.61;100.00
60832;BME280;46665;51.558;-0.448;2023-04-10T13:08:30;100182.53;;;11.67;100.00
60832;BME280;46665;51.558;-0.448;2023-04-10T13:11:15;100178.72;;;11.68;100.00
60832;BME280;46665;51.558;-0.448;2023-04-10T13:13:59;100180.06;;;11.84;100.00
60832;BME280;46665;51.558;-0.448;2023-04-10T13:16:43;100170.31;;;12.11;100.00
60832;BME280;46665;51.558;-0.448;2023-04-10T13:19:27;100171.03;;;12.03;100.00
60832;BME280;46665;51.558;-0.448;2023-04-10T13:22:11;100181.00;;;11.93;100.00
60832;BME280;46665;51.558;-0.448;2023-04-10T13:24:55;100184.63;;;11.89;100.00
60832;BME280;46665;51.558;-0.448;2023-04-10T13:27:39;100154.72;;;11.84;100.00
60832;BME280;46665;51.558;-0.448;2023-04-10T13:30:23;100189.13;;;11.66;100.00
60832;BME280;46665;51.558;-0.448;2023-04-10T13:33:08;100197.13;;;11.43;100.00
60832;BME280;46665;51.558;-0.448;2023-04-10T13:35:52;100203.63;;;10.91;100.00
60832;BME280;46665;51.558;-0.448;2023-04-10T13:38:36;100180.44;;;10.55;100.00
60832;BME280;46665;51.558;-0.448;2023-04-10T13:41:20;100185.09;;;10.31;100.00
60832;BME280;46665;51.558;-0.448;2023-04-10T13:44:03;100170.97;;;10.29;100.00
60832;BME280;46665;51.558;-0.448;2023-04-10T13:46:47;100166.34;;;10.53;100.00
60832;BME280;46665;51.558;-0.448;2023-04-10T13:49:31;100171.84;;;10.67;100.00
60832;BME280;46665;51.558;-0.448;2023-04-10T13:52:15;100189.50;;;10.89;100.00
60832;BME280;46665;51.558;-0.448;2023-04-10T13:54:59;100184.00;;;11.13;100.00
60832;BME280;46665;51.558;-0.448;2023-04-10T13:57:43;100169.44;;;11.36;100.00
60832;BME280;46665;51.558;-0.448;2023-04-10T14:00:27;100162.47;;;11.63;100.00
60832;BME280;46665;51.558;-0.448;2023-04-10T14:03:14;100176.47;;;11.89;100.00
60832;BME280;46665;51.558;-0.448;2023-04-10T14:05:58;100160.81;;;12.22;100.00
60832;BME280;46665;51.558;-0.448;2023-04-10T14:08:42;100154.63;;;12.44;100.00
60832;BME280;46665;51.558;-0.448;2023-04-10T14:11:26;100156.69;;;12.75;100.00
60832;BME280;46665;51.558;-0.448;2023-04-10T14:14:10;100164.19;;;13.06;94.81
60832;BME280;46665;51.558;-0.448;2023-04-10T14:16:54;100148.00;;;13.32;83.42
60832;BME280;46665;51.558;-0.448;2023-04-10T14:19:40;100140.50;;;13.37;80.05
60832;BME280;46665;51.558;-0.448;2023-04-10T14:22:24;100144.44;;;13.54;77.50
60832;BME280;46665;51.558;-0.448;2023-04-10T14:25:08;100152.84;;;13.57;74.40
60832;BME280;46665;51.558;-0.448;2023-04-10T14:27:54;100142.22;;;13.56;75.83
60832;BME280;46665;51.558;-0.448;2023-04-10T14:30:38;100142.22;;;13.56;75.04
60832;BME280;46665;51.558;-0.448;2023-04-10T14:33:22;100176.28;;;13.50;76.54